KLBL/LBL METAR and TAF weather

Enter ICAO airport designator
Station Type Date Time Source
KLBL METAR 2020/11/27 14:56 UTC NOAA

KLBL 271456Z AUTO 33007KT 10SM CLR 00/M01 A3030 RMK AO2 SLP284 T00001011 53016 FZRANO


Station Type Date Time Source
KLBL Decoded METAR 2020/11/27 14:56 UTC NOAA

Liberal, Liberal Municipal Airport, KS, United States (KLBL) 37-03N 100-58W
Nov 27, 2020 - 09:56 AM EST / 2020.11.27 1456 UTC
Wind: from the NNW (330 degrees) at 8 MPH (7 KT):0
Visibility: 10 mile(s):0
Sky conditions: clear
Temperature: 32.0 F (0.0 C)
Windchill: 24 F (-4 C):1
Dew Point: 30.0 F (-1.1 C)
Relative Humidity: 92%
Pressure (altimeter): 30.3 in. Hg (1026 hPa)
Pressure tendency: 0.05 inches (1.6 hPa) higher than three hours ago
ob: KLBL 271456Z AUTO 33007KT 10SM CLR 00/M01 A3030 RMK AO2 SLP284 T00001011 53016 FZRANO
cycle: 15

Station Type Date Time Source
KLBL TAF 2020/11/27 15:39 UTC NOAA

TAF
AMD KLBL 271436Z 2715/2812 VRB06KT P6SM SKC

Example: see airport list